Time;durP1;ratioP1;P1;durP2;ratioP2;P2;SDS_P1;SDS_P2;PMS_P1;PMS_P2;Temp;Humidity;BMP_temperature;BMP_pressure;BME280_temperature;BME280_humidity;BME280_pressure;Samples;Min_cycle;Max_cycle;Signal;HPM_P1;HPM_P2
2023/08/11 00:01:32;;;;;;;;;12.50;12.50;;;;;26.46;50.02;101030.03;5053535;28;56228;-66
2023/08/11 00:03:58;;;;;;;;;13.25;13.25;;;;;26.41;50.48;101030.53;5054520;28;45253;-67
2023/08/11 00:06:25;;;;;;;;;15.25;15.25;;;;;26.35;50.39;101014.97;5054036;28;46787;-66
2023/08/11 00:08:50;;;;;;;;;15.00;15.00;;;;;26.34;50.43;101022.19;5054013;28;45347;-66
2023/08/11 00:11:15;;;;;;;;;14.25;14.25;;;;;26.28;50.40;101006.63;5054361;28;45296;-66
2023/08/11 00:13:42;;;;;;;;;11.00;11.00;;;;;26.28;50.86;101011.19;5053662;28;52062;-67
2023/08/11 00:16:08;;;;;;;;;12.75;12.75;;;;;26.20;51.05;101004.72;5053931;28;46396;-67
2023/08/11 00:18:34;;;;;;;;;15.50;15.50;;;;;26.13;50.79;100997.38;5053652;28;45390;-65
2023/08/11 00:21:00;;;;;;;;;13.00;13.00;;;;;26.17;51.41;101015.81;5054180;28;45427;-66
2023/08/11 00:23:25;;;;;;;;;16.00;16.00;;;;;26.14;51.33;101012.53;5057323;28;45345;-67
2023/08/11 00:25:50;;;;;;;;;11.25;11.25;;;;;26.13;51.23;101003.63;5057156;28;45240;-67
2023/08/11 00:28:16;;;;;;;;;15.50;14.50;;;;;26.10;51.22;101003.94;5057204;28;45330;-66
2023/08/11 00:30:41;;;;;;;;;13.50;13.50;;;;;26.09;51.42;101011.16;5057648;28;45359;-66
2023/08/11 00:33:06;;;;;;;;;11.00;11.00;;;;;26.07;51.31;101018.53;5056061;28;45371;-67
2023/08/11 00:35:32;;;;;;;;;11.00;11.00;;;;;26.05;51.72;101011.63;5057641;28;45323;-67
2023/08/11 00:37:57;;;;;;;;;12.25;12.25;;;;;26.02;51.88;101007.38;5057374;28;45300;-66
2023/08/11 00:40:23;;;;;;;;;11.50;11.50;;;;;25.95;51.71;101020.59;5057384;28;45175;-67
2023/08/11 00:42:52;;;;;;;;;10.75;10.75;;;;;25.88;51.99;101008.72;5057542;28;45283;-66
2023/08/11 00:45:18;;;;;;;;;11.75;11.75;;;;;25.88;52.55;101016.00;5058492;28;45406;-65
2023/08/11 00:47:45;;;;;;;;;10.75;10.50;;;;;25.85;52.33;101005.50;5058645;28;45593;-66
2023/08/11 00:50:12;;;;;;;;;8.25;8.25;;;;;25.84;52.47;101006.50;5057365;28;45375;-67
2023/08/11 00:52:38;;;;;;;;;9.25;9.25;;;;;25.80;52.97;101003.25;5057288;28;45327;-66
2023/08/11 00:55:04;;;;;;;;;9.00;9.00;;;;;25.83;52.55;101000.25;5057178;28;46588;-66
2023/08/11 00:57:31;;;;;;;;;10.75;10.25;;;;;25.78;52.65;100998.03;5057221;28;45467;-66
2023/08/11 00:59:56;;;;;;;;;12.00;12.00;;;;;25.77;52.62;100998.19;5055680;28;45405;-66
2023/08/11 01:02:22;;;;;;;;;11.00;11.00;;;;;25.75;52.82;101002.88;5056825;28;45656;-66
2023/08/11 01:04:48;;;;;;;;;9.75;9.75;;;;;25.76;52.79;101001.88;5056623;28;45458;-66
2023/08/11 01:07:33;;;;;;;;;8.25;8.25;;;;;25.75;52.52;100995.66;5056597;28;45447;-67
2023/08/11 01:10:03;;;;;;;;;9.50;9.50;;;;;25.74;53.00;100998.47;5056835;28;45344;-67
2023/08/11 01:12:56;;;;;;;;;10.00;10.00;;;;;25.71;52.95;100999.66;5057043;28;45317;-66
2023/08/11 01:15:31;;;;;;;;;9.50;9.50;;;;;25.64;52.97;100993.16;5060715;28;45396;-67
2023/08/11 01:17:57;;;;;;;;;9.75;9.75;;;;;25.57;52.91;100986.69;5061387;28;45386;-67
2023/08/11 01:20:23;;;;;;;;;9.50;9.50;;;;;25.58;52.98;100993.78;5058297;28;45357;-67
2023/08/11 01:22:55;;;;;;;;;9.75;9.75;;;;;25.52;53.16;101001.44;5056846;28;45638;-67
2023/08/11 01:25:21;;;;;;;;;9.75;9.75;;;;;25.53;53.28;101007.66;5056374;28;46456;-66
2023/08/11 01:27:57;;;;;;;;;9.25;9.25;;;;;25.48;53.49;101016.22;5056317;28;45340;-66
2023/08/11 01:30:24;;;;;;;;;7.00;7.00;;;;;25.44;53.88;101012.06;5054834;28;45286;-67
2023/08/11 01:32:52;;;;;;;;;9.00;9.00;;;;;25.44;53.88;101017.44;5055472;28;45324;-67
2023/08/11 01:35:21;;;;;;;;;9.50;9.50;;;;;25.46;53.94;101023.59;5055706;28;45458;-66
2023/08/11 01:37:51;;;;;;;;;8.00;8.00;;;;;25.38;53.61;101018.91;5055819;28;45533;-66
2023/08/11 01:40:16;;;;;;;;;7.25;7.25;;;;;25.38;54.30;101021.59;5056197;28;45335;-66
2023/08/11 01:42:43;;;;;;;;;11.50;11.00;;;;;25.34;53.73;101024.72;5056209;28;45539;-66
2023/08/11 01:45:11;;;;;;;;;8.75;8.75;;;;;25.34;54.10;101022.03;5055913;28;46960;-66
2023/08/11 01:47:37;;;;;;;;;8.75;8.75;;;;;25.32;54.34;101029.41;5055879;28;45312;-67
2023/08/11 01:50:04;;;;;;;;;8.75;8.75;;;;;25.32;54.49;101030.28;5056129;28;45240;-67
2023/08/11 01:52:39;;;;;;;;;8.00;8.00;;;;;25.31;54.05;101025.88;5056028;28;45215;-66
2023/08/11 01:55:06;;;;;;;;;11.50;11.50;;;;;25.31;54.27;101033.09;5039868;28;45488;-67
2023/08/11 01:57:31;;;;;;;;;10.50;10.50;;;;;25.28;54.83;101036.94;5033177;28;45495;-66
2023/08/11 01:59:57;;;;;;;;;8.75;8.75;;;;;25.27;54.59;101037.06;5034463;28;45514;-66
2023/08/11 02:02:22;;;;;;;;;9.75;9.75;;;;;25.26;54.56;101041.63;5035398;28;45401;-66
2023/08/11 02:04:48;;;;;;;;;10.75;10.75;;;;;25.23;54.86;101034.69;5035717;28;45262;-67
2023/08/11 02:07:14;;;;;;;;;14.75;14.75;;;;;25.24;55.13;101044.44;5035694;28;45421;-67
2023/08/11 02:09:39;;;;;;;;;8.50;8.50;;;;;25.19;54.59;101035.13;5035677;28;45429;-66
2023/08/11 02:12:05;;;;;;;;;10.50;10.50;;;;;25.15;55.31;101036.44;5036145;28;45534;-66
2023/08/11 02:14:31;;;;;;;;;9.00;9.00;;;;;25.13;55.43;101033.88;5035173;28;46133;-65
2023/08/11 02:16:57;;;;;;;;;9.00;9.00;;;;;25.09;54.89;101027.94;5017211;28;45301;-65
2023/08/11 02:19:22;;;;;;;;;10.50;10.50;;;;;25.11;55.23;101029.63;5035362;28;45270;-66
2023/08/11 02:21:48;;;;;;;;;8.75;8.75;;;;;25.11;55.19;101025.09;5034471;28;45396;-67
2023/08/11 02:24:15;;;;;;;;;11.00;11.00;;;;;25.13;55.56;101028.47;5034422;28;45469;-66
2023/08/11 02:26:40;;;;;;;;;10.00;10.00;;;;;25.02;55.21;101015.22;5033213;28;45301;-66
2023/08/11 02:29:06;;;;;;;;;9.25;9.25;;;;;25.09;55.21;101021.69;5035797;28;45378;-67
2023/08/11 02:31:32;;;;;;;;;9.75;9.75;;;;;25.10;55.81;101028.78;5035600;28;45625;-66
2023/08/11 02:33:58;;;;;;;;;9.25;9.25;;;;;25.04;55.93;101024.84;5034782;28;46864;-66
2023/08/11 02:36:24;;;;;;;;;10.00;10.00;;;;;25.09;55.38;101029.78;5034941;28;45347;-66
2023/08/11 02:38:50;;;;;;;;;14.50;14.50;;;;;25.07;55.82;101032.63;5035159;28;45350;-67
2023/08/11 02:41:16;;;;;;;;;9.50;9.50;;;;;25.05;55.45;101022.97;5035390;28;45278;-66
2023/08/11 02:43:41;;;;;;;;;7.75;7.75;;;;;25.02;55.99;101021.44;5034784;28;46208;-66
2023/08/11 02:46:06;;;;;;;;;9.50;9.50;;;;;25.01;56.01;101025.13;5035148;28;45364;-66
2023/08/11 02:48:35;;;;;;;;;11.25;10.75;;;;;25.00;55.98;101020.75;5034416;28;56649;-66
2023/08/11 02:51:02;;;;;;;;;8.75;8.75;;;;;24.98;55.97;101032.63;5035099;28;45717;-67
2023/08/11 02:53:28;;;;;;;;;9.25;9.25;;;;;24.98;56.44;101024.56;5034739;28;46082;-67
2023/08/11 02:55:53;;;;;;;;;9.75;9.75;;;;;24.98;55.82;101024.56;5034720;28;45416;-66
2023/08/11 02:58:18;;;;;;;;;10.50;10.50;;;;;24.96;56.67;101026.56;5034776;28;45343;-65
2023/08/11 03:00:45;;;;;;;;;12.50;9.25;;;;;24.94;56.33;101026.72;5034356;28;55446;-67
2023/08/11 03:03:11;;;;;;;;;9.25;9.25;;;;;24.91;56.47;101033.22;5034843;28;46234;-66
2023/08/11 03:05:36;;;;;;;;;10.75;10.75;;;;;24.93;56.83;101033.09;5034537;28;45339;-67
2023/08/11 03:08:02;;;;;;;;;9.75;9.75;;;;;24.88;56.68;101024.56;5034445;28;53395;-68
2023/08/11 03:10:27;;;;;;;;;6.50;6.50;;;;;24.88;57.14;101024.56;5034895;28;45295;-67
2023/08/11 03:12:53;;;;;;;;;9.25;9.25;;;;;24.90;56.76;101036.03;5034462;28;47304;-66
2023/08/11 03:15:19;;;;;;;;;10.25;10.25;;;;;24.88;56.50;101038.03;5034383;28;45175;-67
2023/08/11 03:17:45;;;;;;;;;10.00;10.00;;;;;24.86;56.85;101031.94;5034592;28;45178;-66
2023/08/11 03:20:15;;;;;;;;;12.25;12.25;;;;;24.85;56.50;101036.50;5034937;28;45429;-66
2023/08/11 03:22:41;;;;;;;;;10.25;10.25;;;;;24.82;57.08;101035.91;5034586;28;46391;-66
2023/08/11 03:25:08;;;;;;;;;7.25;7.25;;;;;24.84;57.18;101039.31;5034277;28;45144;-67
2023/08/11 03:27:34;;;;;;;;;11.25;11.25;;;;;24.80;57.07;101025.31;5034391;28;45309;-66
2023/08/11 03:29:59;;;;;;;;;12.00;12.00;;;;;24.82;57.55;101044.84;5016514;28;45275;-67
2023/08/11 03:32:25;;;;;;;;;11.00;11.00;;;;;24.80;57.65;101038.75;5034119;28;45283;-67
2023/08/11 03:34:50;;;;;;;;;11.00;11.00;;;;;24.80;57.45;101036.06;5034352;28;45309;-67
2023/08/11 03:37:16;;;;;;;;;9.50;9.50;;;;;24.79;57.86;101039.75;5034553;28;45367;-66
2023/08/11 03:39:41;;;;;;;;;10.25;10.25;;;;;24.77;57.94;101037.19;5034851;28;45358;-66
2023/08/11 03:42:07;;;;;;;;;9.50;9.50;;;;;24.79;57.72;101040.59;5034127;28;46014;-66
2023/08/11 03:44:32;;;;;;;;;10.75;10.75;;;;;24.75;57.72;101036.50;5034033;28;45399;-67
2023/08/11 03:46:57;;;;;;;;;12.00;12.00;;;;;24.77;58.04;101034.50;5034239;28;45377;-67
2023/08/11 03:49:23;;;;;;;;;11.25;11.25;;;;;24.75;57.69;101024.91;5016063;28;45500;-66
2023/08/11 03:51:48;;;;;;;;;11.75;11.75;;;;;24.73;58.15;101025.03;5033651;28;56678;-66
2023/08/11 03:54:13;;;;;;;;;11.25;11.25;;;;;24.71;58.00;101026.97;5034258;28;45357;-67
2023/08/11 03:56:39;;;;;;;;;10.50;10.50;;;;;24.72;57.89;101019.78;5037497;28;45377;-67
2023/08/11 03:59:04;;;;;;;;;9.75;9.75;;;;;24.71;57.70;101015.38;5044174;28;45491;-66
2023/08/11 04:01:29;;;;;;;;;10.25;10.25;;;;;24.69;57.93;101014.69;5039818;28;45427;-67
2023/08/11 04:03:55;;;;;;;;;11.25;11.25;;;;;24.66;57.95;101010.44;5038834;28;66098;-67
2023/08/11 04:06:20;;;;;;;;;9.00;9.00;;;;;24.67;58.38;101016.66;5022295;28;55162;-66
2023/08/11 04:08:45;;;;;;;;;12.50;12.50;;;;;24.65;58.55;101014.09;5038298;28;45576;-66
2023/08/11 04:11:11;;;;;;;;;8.50;8.50;;;;;24.64;58.02;101007.91;5037472;28;45279;-67
2023/08/11 04:13:36;;;;;;;;;11.50;11.50;;;;;24.60;58.56;101005.63;5035993;28;45547;-66
2023/08/11 04:16:01;;;;;;;;;9.00;9.00;;;;;24.63;58.70;101014.28;5037200;28;45833;-66
2023/08/11 04:18:27;;;;;;;;;10.50;10.50;;;;;24.62;58.53;101009.88;5036246;28;45438;-67
2023/08/11 04:20:52;;;;;;;;;13.75;11.75;;;;;24.61;58.52;101010.00;5037155;28;46277;-67
2023/08/11 04:23:18;;;;;;;;;10.00;10.00;;;;;24.57;58.75;101006.78;5037096;28;45203;-66
2023/08/11 04:25:43;;;;;;;;;11.00;11.00;;;;;24.48;58.69;100994.19;5037317;28;50315;-67
2023/08/11 04:28:09;;;;;;;;;11.00;11.00;;;;;24.58;58.93;101007.59;5037476;28;45524;-66
2023/08/11 04:30:35;;;;;;;;;11.25;11.25;;;;;24.57;58.88;100997.84;5036832;28;47164;-67
2023/08/11 04:33:00;;;;;;;;;9.25;9.25;;;;;24.56;58.83;101005.09;5035333;28;45458;-66
2023/08/11 04:35:26;;;;;;;;;11.50;11.50;;;;;24.53;58.98;101008.06;5037063;28;45326;-67
2023/08/11 04:37:51;;;;;;;;;11.00;11.00;;;;;24.52;59.07;101009.03;5019423;28;45458;-65
2023/08/11 04:40:17;;;;;;;;;11.50;11.50;;;;;24.48;59.47;100999.56;5036970;28;49036;-67
2023/08/11 04:42:43;;;;;;;;;11.75;11.75;;;;;24.50;59.96;101005.66;5037341;28;45323;-66
2023/08/11 04:45:10;;;;;;;;;11.00;11.00;;;;;24.49;60.01;101007.47;5037026;28;45408;-65
2023/08/11 04:47:35;;;;;;;;;11.50;11.50;;;;;24.51;59.66;101005.50;5036864;28;45576;-67
2023/08/11 04:50:00;;;;;;;;;10.00;10.00;;;;;24.48;60.02;101007.63;5036668;28;46035;-66
2023/08/11 04:52:26;;;;;;;;;10.75;10.75;;;;;24.51;59.67;101010.88;5036653;28;45364;-66
2023/08/11 04:54:52;;;;;;;;;12.25;12.25;;;;;24.55;59.96;101016.81;5036768;28;45309;-66
2023/08/11 04:57:17;;;;;;;;;11.75;11.75;;;;;24.53;60.30;101012.56;5037205;28;45583;-66
2023/08/11 04:59:43;;;;;;;;;14.50;14.50;;;;;24.52;60.05;101006.34;5036476;28;46311;-66
2023/08/11 05:02:09;;;;;;;;;13.50;13.50;;;;;24.56;59.64;101006.91;5019418;28;62457;-66
2023/08/11 05:04:34;;;;;;;;;11.00;11.00;;;;;24.52;60.42;101003.66;5036860;28;58614;-67
2023/08/11 05:07:00;;;;;;;;;12.00;12.00;;;;;24.55;60.49;101011.44;5036360;28;45197;-66
2023/08/11 05:09:25;;;;;;;;;11.50;11.50;;;;;24.55;59.98;101003.38;5035691;28;46539;-66
2023/08/11 05:11:50;;;;;;;;;13.00;13.00;;;;;24.58;59.91;101004.91;5036342;28;45474;-67
2023/08/11 05:14:17;;;;;;;;;13.00;13.00;;;;;24.56;60.12;101002.38;5036719;28;45347;-66
2023/08/11 05:16:44;;;;;;;;;11.75;11.75;;;;;24.58;60.37;100996.84;5036495;28;45547;-66
2023/08/11 05:19:10;;;;;;;;;12.25;12.25;;;;;24.62;59.86;101009.88;5035835;28;45345;-67
2023/08/11 05:21:39;;;;;;;;;13.75;13.75;;;;;24.58;60.27;101002.22;5017762;28;45346;-67
2023/08/11 05:24:05;;;;;;;;;13.00;13.00;;;;;24.67;60.24;101003.22;5036545;28;45284;-66
2023/08/11 05:26:31;;;;;;;;;12.25;12.25;;;;;24.71;60.13;101016.22;5036471;28;45547;-66
2023/08/11 05:28:56;;;;;;;;;14.50;14.50;;;;;24.76;60.06;101015.84;5038847;28;46317;-66
2023/08/11 05:31:21;;;;;;;;;11.00;11.00;;;;;24.75;59.90;101006.91;5039050;28;45299;-66
2023/08/11 05:33:47;;;;;;;;;13.00;13.00;;;;;24.77;59.74;100998.69;5036757;28;45842;-66
2023/08/11 05:36:12;;;;;;;;;0.00;0.00;;;;;24.81;60.10;101008.19;5035323;28;45358;-66
2023/08/11 05:38:38;;;;;;;;;14.00;14.00;;;;;24.86;60.22;101008.59;5036244;28;46645;-67
2023/08/11 05:41:03;;;;;;;;;14.00;14.00;;;;;24.86;60.01;101008.59;5035230;28;45417;-67
2023/08/11 05:43:29;;;;;;;;;13.00;13.00;;;;;24.88;59.92;101020.06;5034553;28;45368;-68
2023/08/11 05:45:54;;;;;;;;;13.75;13.00;;;;;24.88;60.05;101020.06;5036067;28;45472;-67
2023/08/11 05:48:20;;;;;;;;;12.00;12.00;;;;;24.92;60.26;101017.94;5036042;28;46083;-67
2023/08/11 05:50:45;;;;;;;;;13.00;13.00;;;;;24.92;59.83;101020.63;5035692;28;45482;-67
2023/08/11 05:53:11;;;;;;;;;11.75;11.75;;;;;24.94;59.80;101021.34;5035783;28;45649;-68
2023/08/11 05:55:37;;;;;;;;;12.50;12.50;;;;;24.98;59.71;101024.56;5036346;28;45464;-68
2023/08/11 05:58:02;;;;;;;;;11.75;11.75;;;;;25.00;59.94;101027.97;5033183;28;45884;-67
2023/08/11 06:00:27;;;;;;;;;13.00;13.00;;;;;25.06;59.95;101022.00;5034033;28;45438;-68
2023/08/11 06:02:53;;;;;;;;;13.75;13.75;;;;;25.08;59.56;101025.38;5035623;28;45323;-66
2023/08/11 06:05:21;;;;;;;;;16.75;16.75;;;;;25.18;59.05;101023.50;5035542;28;45424;-63
2023/08/11 06:07:47;;;;;;;;;14.00;14.00;;;;;25.21;59.33;101020.53;5035363;28;46679;-63
2023/08/11 06:10:13;;;;;;;;;14.25;14.25;;;;;25.31;59.42;101019.63;5035354;28;45287;-63
2023/08/11 06:12:38;;;;;;;;;15.75;15.75;;;;;25.23;59.28;101001.53;5035131;28;45361;-62
2023/08/11 06:15:04;;;;;;;;;20.25;18.00;;;;;25.44;58.95;101039.00;5035565;28;45304;-65
2023/08/11 06:17:30;;;;;;;;;14.75;14.75;;;;;25.46;59.19;101037.06;5045833;28;46759;-62
2023/08/11 06:19:57;;;;;;;;;14.25;14.25;;;;;25.50;59.09;101026.81;5054874;28;45379;-61
2023/08/11 06:22:22;;;;;;;;;14.50;14.50;;;;;25.62;59.08;101030.19;5054955;28;45502;-62
2023/08/11 06:24:48;;;;;;;;;16.00;16.00;;;;;25.62;59.07;101022.09;5062579;28;45277;-61
2023/08/11 06:27:14;;;;;;;;;17.00;15.75;;;;;25.74;58.15;101026.28;5075192;27;46929;-62
2023/08/11 06:29:39;;;;;;;;;13.25;13.25;;;;;25.81;58.55;101031.91;5069069;28;45410;-63
2023/08/11 06:32:05;;;;;;;;;23.50;20.50;;;;;25.86;58.63;101044.94;5063346;28;45564;-63
2023/08/11 06:34:30;;;;;;;;;15.75;15.75;;;;;25.90;57.86;101030.16;5055100;28;45505;-63
2023/08/11 06:36:55;;;;;;;;;13.00;13.00;;;;;25.93;57.98;101037.94;5051988;28;68918;-68
2023/08/11 06:39:20;;;;;;;;;15.25;15.25;;;;;25.99;58.09;101041.88;5053787;28;66112;-64
2023/08/11 06:41:46;;;;;;;;;18.00;18.00;;;;;25.96;57.77;101027.69;5058183;28;55133;-62
2023/08/11 06:44:11;;;;;;;;;14.25;14.25;;;;;26.04;58.00;101035.03;5057238;28;55702;-66
2023/08/11 06:46:36;;;;;;;;;15.00;15.00;;;;;26.17;57.74;101041.91;5062914;28;54131;-66
2023/08/11 06:49:02;;;;;;;;;14.00;14.00;;;;;26.18;57.60;101043.59;5075779;28;45326;-65
2023/08/11 06:51:28;;;;;;;;;13.00;13.00;;;;;26.26;57.69;101043.69;5074529;28;45394;-65
2023/08/11 06:53:53;;;;;;;;;21.00;21.00;;;;;26.31;57.77;101049.47;5057620;28;45474;-68
2023/08/11 06:56:18;;;;;;;;;14.50;14.50;;;;;26.39;57.29;101046.84;5066355;28;45446;-64
2023/08/11 06:58:44;;;;;;;;;13.00;13.00;;;;;26.39;57.27;101062.19;5055318;28;45473;-64
2023/08/11 07:01:09;;;;;;;;;13.00;13.00;;;;;26.54;57.15;101065.22;5051742;28;45390;-66
2023/08/11 07:03:34;;;;;;;;;20.50;20.50;;;;;26.68;56.77;101070.03;5056238;28;45315;-66
2023/08/11 07:06:01;;;;;;;;;15.25;15.25;;;;;26.76;56.45;101061.16;5054004;28;45417;-65
2023/08/11 07:08:26;;;;;;;;;18.00;18.00;;;;;26.84;56.21;101060.41;5055004;28;45318;-65
2023/08/11 07:10:52;;;;;;;;;18.50;18.25;;;;;26.96;56.20;101064.56;5072035;28;45783;-67
2023/08/11 07:13:18;;;;;;;;;17.25;15.75;;;;;26.97;56.14;101060.84;5063034;28;45344;-67
2023/08/11 07:15:44;;;;;;;;;14.25;14.25;;;;;27.10;55.66;101070.38;5060544;28;45504;-68
2023/08/11 07:18:10;;;;;;;;;13.25;13.25;;;;;27.15;55.84;101072.59;5039519;28;45489;-68
2023/08/11 07:20:40;;;;;;;;;11.50;11.50;;;;;27.21;56.37;101080.06;5054900;28;45406;-72
2023/08/11 07:23:06;;;;;;;;;13.00;13.00;;;;;27.23;56.49;101080.75;5053377;28;45495;-69
2023/08/11 07:25:31;;;;;;;;;10.75;10.75;;;;;27.26;56.20;101085.84;5053292;28;46312;-71
2023/08/11 07:27:56;;;;;;;;;10.25;10.25;;;;;27.33;56.81;101080.63;5054682;28;45445;-70
2023/08/11 07:30:22;;;;;;;;;9.50;9.50;;;;;27.39;56.15;101090.78;5053230;28;45370;-69
2023/08/11 07:32:47;;;;;;;;;14.50;11.50;;;;;27.46;56.13;101102.66;5057972;28;45606;-69
2023/08/11 07:35:12;;;;;;;;;8.75;8.75;;;;;27.48;56.77;101100.63;5056481;28;46143;-69
2023/08/11 07:37:38;;;;;;;;;11.00;11.00;;;;;27.54;56.83;101110.00;5057535;28;45381;-69
2023/08/11 07:40:04;;;;;;;;;8.75;8.75;;;;;27.48;56.78;101100.63;5057763;28;50854;-72
2023/08/11 07:42:29;;;;;;;;;17.00;17.00;;;;;27.52;56.97;101109.31;5058293;28;45416;-71
2023/08/11 07:44:54;;;;;;;;;12.25;11.00;;;;;27.48;57.34;101110.59;5057734;28;45355;-72
2023/08/11 07:47:20;;;;;;;;;9.50;9.50;;;;;27.46;56.90;101124.25;5057561;28;45276;-72
2023/08/11 07:49:45;;;;;;;;;30.25;24.75;;;;;27.53;56.54;101119.94;5057593;28;45245;-71
2023/08/11 07:52:10;;;;;;;;;14.25;14.25;;;;;27.52;56.82;101120.13;5057405;28;48404;-69
2023/08/11 07:54:36;;;;;;;;;12.25;12.25;;;;;27.58;56.89;101124.03;5057089;28;46004;-69
2023/08/11 07:57:01;;;;;;;;;12.00;12.00;;;;;27.56;57.27;101116.91;5056006;28;45370;-70
2023/08/11 07:59:26;;;;;;;;;10.00;10.00;;;;;27.58;56.70;101118.63;5058015;28;45428;-69
2023/08/11 08:01:52;;;;;;;;;15.25;15.00;;;;;27.75;56.52;101122.25;5057705;28;45319;-72
2023/08/11 08:04:17;;;;;;;;;13.50;13.25;;;;;27.85;56.13;101120.25;5057602;28;45418;-74
2023/08/11 08:06:45;;;;;;;;;13.25;13.25;;;;;27.93;55.96;101132.97;5057732;28;45440;-71
2023/08/11 08:09:14;;;;;;;;;16.50;16.50;;;;;28.03;55.64;101125.59;5057509;28;45365;-70
2023/08/11 08:11:43;;;;;;;;;17.25;17.25;;;;;28.13;56.25;101133.56;5057370;28;45474;-71
2023/08/11 08:14:11;;;;;;;;;16.25;16.25;;;;;28.14;55.22;101135.28;5057394;28;47241;-72
2023/08/11 08:16:46;;;;;;;;;14.75;14.75;;;;;28.12;56.08;101135.41;5057563;28;45376;-70
2023/08/11 08:19:14;;;;;;;;;13.75;13.75;;;;;28.13;55.96;101131.72;5039106;28;45257;-72
2023/08/11 08:21:39;;;;;;;;;10.25;10.25;;;;;28.15;55.77;101134.28;5057585;28;45324;-72
2023/08/11 08:24:05;;;;;;;;;11.00;11.00;;;;;28.13;55.84;101126.31;5057396;28;46474;-73
2023/08/11 08:26:31;;;;;;;;;14.75;14.50;;;;;28.19;55.86;101127.53;5057068;28;45333;-70
2023/08/11 08:28:57;;;;;;;;;13.75;13.75;;;;;28.45;55.37;101133.81;5056025;28;45361;-69
2023/08/11 08:31:23;;;;;;;;;13.00;13.00;;;;;28.57;55.30;101141.47;5055678;28;45553;-70
2023/08/11 08:33:48;;;;;;;;;13.25;13.25;;;;;28.70;54.30;101132.00;5057035;28;46260;-71
2023/08/11 08:36:13;;;;;;;;;14.25;14.25;;;;;28.78;54.43;101120.38;5057858;28;45379;-69
2023/08/11 08:38:39;;;;;;;;;13.50;13.50;;;;;28.79;54.02;101113.94;5058090;28;45336;-72
2023/08/11 08:41:08;;;;;;;;;16.25;16.25;;;;;28.85;53.94;101126.81;5057834;28;45577;-70
2023/08/11 08:43:34;;;;;;;;;18.50;17.50;;;;;28.88;53.90;101131.03;5056653;28;45589;-72
2023/08/11 08:46:02;;;;;;;;;15.25;15.25;;;;;29.01;53.67;101140.34;5057439;28;45209;-72
2023/08/11 08:48:36;;;;;;;;;20.25;18.50;;;;;28.97;53.31;101144.41;5057761;28;45449;-72
2023/08/11 08:51:01;;;;;;;;;13.00;13.00;;;;;29.06;53.33;101130.84;5057936;28;45924;-72
2023/08/11 08:53:27;;;;;;;;;15.50;15.50;;;;;29.20;53.66;101132.03;5057104;28;46332;-71
2023/08/11 08:55:53;;;;;;;;;14.25;14.25;;;;;29.22;53.17;101114.59;5056830;28;45351;-70
2023/08/11 08:58:18;;;;;;;;;16.00;16.00;;;;;29.38;52.66;101127.25;5038336;28;45275;-69
2023/08/11 09:00:45;;;;;;;;;17.50;17.50;;;;;29.44;52.42;101118.47;5057183;28;45536;-71
2023/08/11 09:03:11;;;;;;;;;16.75;16.75;;;;;29.65;52.32;101127.03;5056693;28;46334;-71
2023/08/11 09:05:37;;;;;;;;;17.25;17.25;;;;;29.75;52.05;101122.28;5056523;28;45406;-70
2023/08/11 09:08:03;;;;;;;;;14.50;14.50;;;;;29.95;51.81;101138.13;5055654;28;45377;-69
2023/08/11 09:10:29;;;;;;;;;16.00;16.00;;;;;30.00;51.51;101136.56;5057167;28;45468;-70
2023/08/11 09:12:54;;;;;;;;;17.25;16.25;;;;;30.05;51.07;101136.06;5056110;28;46288;-70
2023/08/11 09:15:21;;;;;;;;;15.00;15.00;;;;;30.07;51.46;101125.03;5056007;28;56837;-71
2023/08/11 09:17:47;;;;;;;;;17.75;17.75;;;;;30.09;51.35;101126.53;5056453;28;45514;-71
2023/08/11 09:20:17;;;;;;;;;12.50;12.50;;;;;30.15;50.81;101124.97;5056297;28;45382;-70
2023/08/11 09:22:43;;;;;;;;;12.75;12.75;;;;;30.21;50.29;101118.00;5055987;28;46172;-70
2023/08/11 09:25:10;;;;;;;;;12.50;12.50;;;;;30.21;50.73;101126.13;5056481;28;45358;-72
2023/08/11 09:27:36;;;;;;;;;11.25;11.25;;;;;30.22;50.59;101128.69;5058389;28;45219;-69
2023/08/11 09:30:03;;;;;;;;;16.25;16.25;;;;;30.17;50.60;101140.06;5038880;28;45394;-70
2023/08/11 09:32:32;;;;;;;;;16.00;14.75;;;;;30.16;50.58;101122.09;5056195;28;47234;-69
2023/08/11 09:35:00;;;;;;;;;13.50;13.50;;;;;30.22;50.50;101154.97;5056222;28;45298;-71
2023/08/11 09:37:26;;;;;;;;;14.25;14.25;;;;;30.14;50.79;101140.41;5056397;28;45271;-72
2023/08/11 09:39:55;;;;;;;;;14.25;14.25;;;;;30.32;50.27;101147.44;5056403;28;45557;-73
2023/08/11 09:42:25;;;;;;;;;17.00;17.00;;;;;30.32;49.83;101163.72;5056834;28;46182;-73
2023/08/11 09:44:53;;;;;;;;;13.25;13.25;;;;;30.43;49.83;101163.31;5056700;28;45329;-71
2023/08/11 09:47:19;;;;;;;;;9.50;9.00;;;;;30.46;49.78;101152.09;5038276;28;45493;-69
2023/08/11 09:49:44;;;;;;;;;12.75;12.75;;;;;30.62;49.30;101163.88;5056187;28;45499;-70
2023/08/11 09:52:11;;;;;;;;;12.75;12.75;;;;;30.69;49.13;101161.31;5038159;28;48967;-71
2023/08/11 09:54:39;;;;;;;;;12.00;12.00;;;;;30.79;48.99;101163.78;5054910;28;45440;-70
2023/08/11 09:57:06;;;;;;;;;11.25;11.25;;;;;30.90;49.13;101161.47;5055883;28;45485;-69
2023/08/11 09:59:32;;;;;;;;;14.00;14.00;;;;;31.10;48.36;101158.25;5056139;28;45532;-70
2023/08/11 10:02:01;;;;;;;;;14.25;14.25;;;;;31.35;47.71;101158.06;5055526;28;45366;-71
2023/08/11 10:04:41;;;;;;;;;12.50;12.50;;;;;31.53;47.64;101173.16;5055810;28;45237;-72
2023/08/11 10:07:13;;;;;;;;;11.50;11.50;;;;;31.65;47.21;101166.22;5054926;28;45409;-70
2023/08/11 10:09:39;;;;;;;;;9.75;8.75;;;;;31.69;46.84;101172.13;5057086;28;45299;-71
2023/08/11 10:12:07;;;;;;;;;12.50;12.50;;;;;31.69;47.37;101170.25;5059166;28;45304;-74
2023/08/11 10:14:36;;;;;;;;;13.50;13.50;;;;;31.77;46.22;101172.91;5059714;28;45313;-71
2023/08/11 10:17:03;;;;;;;;;12.50;12.50;;;;;32.04;45.99;101175.16;5056783;28;45877;-71
2023/08/11 10:19:29;;;;;;;;;13.25;13.25;;;;;31.97;45.49;101166.91;5056030;28;45367;-71
2023/08/11 10:21:56;;;;;;;;;11.25;11.25;;;;;31.81;45.30;101146.22;5055050;28;46817;-71
2023/08/11 10:24:22;;;;;;;;;10.25;10.25;;;;;31.67;45.89;101153.28;5055308;28;45428;-71
2023/08/11 10:26:49;;;;;;;;;12.25;12.25;;;;;31.68;45.88;101154.13;5056102;28;45305;-74
2023/08/11 10:29:15;;;;;;;;;11.00;11.00;;;;;31.58;45.99;101135.38;5055831;28;45326;-73
2023/08/11 10:31:55;;;;;;;;;12.50;12.50;;;;;31.74;45.58;101146.09;5054916;28;46036;-71
2023/08/11 10:34:24;;;;;;;;;11.75;11.75;;;;;31.74;45.44;101143.38;5055386;28;45422;-71
2023/08/11 10:36:53;;;;;;;;;10.75;10.75;;;;;31.70;45.74;101146.63;5054797;28;45308;-71
2023/08/11 10:39:20;;;;;;;;;9.25;9.25;;;;;31.60;45.92;101155.06;5054995;28;45277;-73
2023/08/11 10:41:46;;;;;;;;;11.00;11.00;;;;;31.52;45.92;101152.44;5054794;28;49397;-71
2023/08/11 10:44:17;;;;;;;;;11.00;11.00;;;;;31.66;45.88;101153.47;5054703;28;45390;-73
2023/08/11 10:46:44;;;;;;;;;13.50;13.00;;;;;31.79;45.86;101142.78;5036846;28;45251;-71
2023/08/11 10:49:09;;;;;;;;;13.25;13.25;;;;;31.93;45.95;101143.00;5055430;28;45512;-72
2023/08/11 10:51:37;;;;;;;;;13.25;13.25;;;;;31.87;45.50;101144.59;5054953;28;45356;-72
2023/08/11 10:54:02;;;;;;;;;10.50;10.50;;;;;31.83;45.30;101144.13;5055128;28;45328;-70
2023/08/11 10:56:31;;;;;;;;;10.25;10.25;;;;;31.91;45.36;101146.75;5055335;28;45395;-71
2023/08/11 10:59:16;;;;;;;;;9.50;9.50;;;;;32.04;44.89;101151.50;5056512;28;46066;-68
2023/08/11 11:01:50;;;;;;;;;10.00;10.00;;;;;32.09;44.99;101137.34;5055246;28;46333;-74
2023/08/11 11:04:16;;;;;;;;;10.75;10.75;;;;;32.22;44.47;101149.41;5055973;28;45427;-71
2023/08/11 11:06:44;;;;;;;;;14.25;14.25;;;;;32.41;44.69;101145.25;5055186;28;45271;-71
2023/08/11 11:09:10;;;;;;;;;13.25;13.25;;;;;32.46;44.47;101140.06;5055619;28;45329;-70